sensor_id;sensor_type;location;lat;lon;timestamp;temperature;humidity
24384;DHT22;12504;52.870;8.798;2024-01-15T00:54:19;1.20;99.90
24384;DHT22;12504;52.870;8.798;2024-01-15T00:56:45;1.10;99.90
24384;DHT22;12504;52.870;8.798;2024-01-15T00:59:10;1.20;99.90
24384;DHT22;12504;52.870;8.798;2024-01-15T01:01:40;1.20;99.90
24384;DHT22;12504;52.870;8.798;2024-01-15T01:04:12;1.30;99.90
24384;DHT22;12504;52.870;8.798;2024-01-15T01:06:37;1.30;99.90
24384;DHT22;12504;52.870;8.798;2024-01-15T01:09:03;1.30;99.90
24384;DHT22;12504;52.870;8.798;2024-01-15T01:11:29;1.30;99.90
24384;DHT22;12504;52.870;8.798;2024-01-15T01:13:55;1.30;99.90
24384;DHT22;12504;52.870;8.798;2024-01-15T01:16:22;1.30;99.90
24384;DHT22;12504;52.870;8.798;2024-01-15T01:18:48;1.40;99.90
24384;DHT22;12504;52.870;8.798;2024-01-15T01:21:13;1.40;99.90
24384;DHT22;12504;52.870;8.798;2024-01-15T01:23:39;1.40;99.90
24384;DHT22;12504;52.870;8.798;2024-01-15T01:26:04;1.40;99.90
24384;DHT22;12504;52.870;8.798;2024-01-15T01:28:30;1.40;99.90
24384;DHT22;12504;52.870;8.798;2024-01-15T01:30:56;1.40;99.90
24384;DHT22;12504;52.870;8.798;2024-01-15T01:33:21;1.40;99.90
24384;DHT22;12504;52.870;8.798;2024-01-15T01:35:47;1.40;99.90
24384;DHT22;12504;52.870;8.798;2024-01-15T01:38:13;1.40;99.90
24384;DHT22;12504;52.870;8.798;2024-01-15T01:40:38;1.40;99.90
24384;DHT22;12504;52.870;8.798;2024-01-15T01:43:05;1.40;99.90
24384;DHT22;12504;52.870;8.798;2024-01-15T01:45:30;1.50;99.90
24384;DHT22;12504;52.870;8.798;2024-01-15T01:47:56;1.40;99.90
24384;DHT22;12504;52.870;8.798;2024-01-15T01:50:22;1.40;99.90
24384;DHT22;12504;52.870;8.798;2024-01-15T01:52:48;1.50;99.90
24384;DHT22;12504;52.870;8.798;2024-01-15T01:55:15;1.50;99.90
24384;DHT22;12504;52.870;8.798;2024-01-15T01:57:40;1.50;99.90
24384;DHT22;12504;52.870;8.798;2024-01-15T02:00:07;1.40;99.90
24384;DHT22;12504;52.870;8.798;2024-01-15T02:02:39;1.30;99.90
24384;DHT22;12504;52.870;8.798;2024-01-15T02:05:06;1.30;99.90
24384;DHT22;12504;52.870;8.798;2024-01-15T02:07:34;1.30;99.90
24384;DHT22;12504;52.870;8.798;2024-01-15T02:10:00;1.40;99.90
24384;DHT22;12504;52.870;8.798;2024-01-15T02:12:25;1.30;99.90
24384;DHT22;12504;52.870;8.798;2024-01-15T02:14:51;1.40;99.90
24384;DHT22;12504;52.870;8.798;2024-01-15T02:17:17;1.40;99.90
24384;DHT22;12504;52.870;8.798;2024-01-15T02:19:42;1.40;99.90
24384;DHT22;12504;52.870;8.798;2024-01-15T02:22:08;1.40;99.90
24384;DHT22;12504;52.870;8.798;2024-01-15T02:24:34;1.40;99.90
24384;DHT22;12504;52.870;8.798;2024-01-15T02:26:59;1.40;99.90
24384;DHT22;12504;52.870;8.798;2024-01-15T02:29:25;1.30;99.90
24384;DHT22;12504;52.870;8.798;2024-01-15T02:31:51;1.40;99.90
24384;DHT22;12504;52.870;8.798;2024-01-15T02:34:16;1.40;99.90
24384;DHT22;12504;52.870;8.798;2024-01-15T02:36:42;1.40;99.90
24384;DHT22;12504;52.870;8.798;2024-01-15T02:39:08;1.40;99.90
24384;DHT22;12504;52.870;8.798;2024-01-15T02:41:33;1.40;99.90
24384;DHT22;12504;52.870;8.798;2024-01-15T02:43:59;1.40;99.90
24384;DHT22;12504;52.870;8.798;2024-01-15T02:46:25;1.50;99.90
24384;DHT22;12504;52.870;8.798;2024-01-15T02:48:50;1.50;99.90
24384;DHT22;12504;52.870;8.798;2024-01-15T02:51:16;1.40;99.90
24384;DHT22;12504;52.870;8.798;2024-01-15T02:53:41;1.40;99.90
24384;DHT22;12504;52.870;8.798;2024-01-15T02:56:08;1.50;99.90
24384;DHT22;12504;52.870;8.798;2024-01-15T02:58:33;1.40;99.90
24384;DHT22;12504;52.870;8.798;2024-01-15T03:00:59;1.50;99.90
24384;DHT22;12504;52.870;8.798;2024-01-15T03:03:24;1.50;99.90
24384;DHT22;12504;52.870;8.798;2024-01-15T03:05:50;1.40;99.90
24384;DHT22;12504;52.870;8.798;2024-01-15T03:08:16;1.40;99.90
24384;DHT22;12504;52.870;8.798;2024-01-15T03:10:42;1.50;99.90
24384;DHT22;12504;52.870;8.798;2024-01-15T03:13:08;1.50;99.90
24384;DHT22;12504;52.870;8.798;2024-01-15T03:15:34;1.50;99.90
24384;DHT22;12504;52.870;8.798;2024-01-15T03:17:59;1.50;99.90
24384;DHT22;12504;52.870;8.798;2024-01-15T03:20:25;1.50;99.90
24384;DHT22;12504;52.870;8.798;2024-01-15T03:22:51;1.50;99.90
24384;DHT22;12504;52.870;8.798;2024-01-15T03:25:16;1.50;99.90
24384;DHT22;12504;52.870;8.798;2024-01-15T03:27:42;1.50;99.90
24384;DHT22;12504;52.870;8.798;2024-01-15T03:30:08;1.50;99.90
24384;DHT22;12504;52.870;8.798;2024-01-15T03:32:33;1.50;99.90
24384;DHT22;12504;52.870;8.798;2024-01-15T03:34:59;1.50;99.90
24384;DHT22;12504;52.870;8.798;2024-01-15T03:37:25;1.30;99.90
24384;DHT22;12504;52.870;8.798;2024-01-15T03:42:54;1.10;99.90
24384;DHT22;12504;52.870;8.798;2024-01-15T03:45:20;1.10;99.90
24384;DHT22;12504;52.870;8.798;2024-01-15T03:47:47;1.10;99.90
24384;DHT22;12504;52.870;8.798;2024-01-15T03:50:12;1.10;99.90
24384;DHT22;12504;52.870;8.798;2024-01-15T03:52:38;1.10;99.90
24384;DHT22;12504;52.870;8.798;2024-01-15T03:55:05;1.10;99.90
24384;DHT22;12504;52.870;8.798;2024-01-15T03:57:32;1.20;99.90
24384;DHT22;12504;52.870;8.798;2024-01-15T03:59:58;1.20;99.90
24384;DHT22;12504;52.870;8.798;2024-01-15T04:02:24;1.30;99.90
24384;DHT22;12504;52.870;8.798;2024-01-15T04:07:17;1.30;99.90
24384;DHT22;12504;52.870;8.798;2024-01-15T04:09:44;1.30;99.90
24384;DHT22;12504;52.870;8.798;2024-01-15T04:12:09;1.30;99.90
24384;DHT22;12504;52.870;8.798;2024-01-15T04:14:35;1.30;99.90
24384;DHT22;12504;52.870;8.798;2024-01-15T04:17:02;1.30;99.90
24384;DHT22;12504;52.870;8.798;2024-01-15T04:19:28;1.30;99.90
24384;DHT22;12504;52.870;8.798;2024-01-15T04:21:53;1.30;99.90
24384;DHT22;12504;52.870;8.798;2024-01-15T04:24:19;1.30;99.90
24384;DHT22;12504;52.870;8.798;2024-01-15T04:26:45;1.30;99.90
24384;DHT22;12504;52.870;8.798;2024-01-15T04:29:14;1.30;99.90
24384;DHT22;12504;52.870;8.798;2024-01-15T04:31:39;1.30;99.90
24384;DHT22;12504;52.870;8.798;2024-01-15T04:34:05;1.30;99.90
24384;DHT22;12504;52.870;8.798;2024-01-15T04:36:31;1.30;99.90
24384;DHT22;12504;52.870;8.798;2024-01-15T04:38:56;1.30;99.90
24384;DHT22;12504;52.870;8.798;2024-01-15T04:41:23;1.30;99.90
24384;DHT22;12504;52.870;8.798;2024-01-15T04:43:49;1.30;99.90
24384;DHT22;12504;52.870;8.798;2024-01-15T04:46:15;1.30;99.90
24384;DHT22;12504;52.870;8.798;2024-01-15T04:48:40;1.30;99.90
24384;DHT22;12504;52.870;8.798;2024-01-15T04:51:09;1.30;99.90
24384;DHT22;12504;52.870;8.798;2024-01-15T04:53:36;1.30;99.90
24384;DHT22;12504;52.870;8.798;2024-01-15T04:56:01;1.30;99.90
24384;DHT22;12504;52.870;8.798;2024-01-15T04:58:28;1.30;99.90
24384;DHT22;12504;52.870;8.798;2024-01-15T05:00:55;1.30;99.90
24384;DHT22;12504;52.870;8.798;2024-01-15T05:03:22;1.30;99.90
24384;DHT22;12504;52.870;8.798;2024-01-15T05:05:47;1.30;99.90
24384;DHT22;12504;52.870;8.798;2024-01-15T05:08:13;1.20;99.90
24384;DHT22;12504;52.870;8.798;2024-01-15T05:10:39;1.10;99.90
24384;DHT22;12504;52.870;8.798;2024-01-15T05:13:04;1.10;99.90
24384;DHT22;12504;52.870;8.798;2024-01-15T05:15:30;1.10;99.90
24384;DHT22;12504;52.870;8.798;2024-01-15T05:17:56;1.00;99.90
24384;DHT22;12504;52.870;8.798;2024-01-15T05:20:22;1.10;99.90
24384;DHT22;12504;52.870;8.798;2024-01-15T05:22:47;1.20;99.90
24384;DHT22;12504;52.870;8.798;2024-01-15T05:25:13;1.20;99.90
24384;DHT22;12504;52.870;8.798;2024-01-15T05:27:38;1.30;99.90
24384;DHT22;12504;52.870;8.798;2024-01-15T05:30:04;1.00;99.90
24384;DHT22;12504;52.870;8.798;2024-01-15T05:32:30;1.10;99.90
24384;DHT22;12504;52.870;8.798;2024-01-15T05:34:56;1.20;99.90
24384;DHT22;12504;52.870;8.798;2024-01-15T05:37:22;1.10;99.90
24384;DHT22;12504;52.870;8.798;2024-01-15T05:39:48;1.10;99.90
24384;DHT22;12504;52.870;8.798;2024-01-15T05:42:14;1.10;99.90
24384;DHT22;12504;52.870;8.798;2024-01-15T05:44:39;1.30;99.90
24384;DHT22;12504;52.870;8.798;2024-01-15T05:47:05;1.10;99.90
24384;DHT22;12504;52.870;8.798;2024-01-15T05:49:30;1.20;99.90
24384;DHT22;12504;52.870;8.798;2024-01-15T05:51:56;1.20;99.90
24384;DHT22;12504;52.870;8.798;2024-01-15T05:54:22;1.20;99.90
24384;DHT22;12504;52.870;8.798;2024-01-15T05:56:47;1.20;99.90
24384;DHT22;12504;52.870;8.798;2024-01-15T05:59:13;1.20;99.90
24384;DHT22;12504;52.870;8.798;2024-01-15T06:01:40;1.20;99.90
24384;DHT22;12504;52.870;8.798;2024-01-15T06:04:05;1.20;99.90
24384;DHT22;12504;52.870;8.798;2024-01-15T06:06:32;1.30;99.90
24384;DHT22;12504;52.870;8.798;2024-01-15T06:08:57;1.30;99.90
24384;DHT22;12504;52.870;8.798;2024-01-15T06:11:33;1.20;99.90
24384;DHT22;12504;52.870;8.798;2024-01-15T06:13:58;1.20;99.90
24384;DHT22;12504;52.870;8.798;2024-01-15T06:16:27;1.40;99.90
24384;DHT22;12504;52.870;8.798;2024-01-15T06:18:53;1.20;99.90
24384;DHT22;12504;52.870;8.798;2024-01-15T06:21:20;1.30;99.90
24384;DHT22;12504;52.870;8.798;2024-01-15T06:23:45;1.10;99.90
24384;DHT22;12504;52.870;8.798;2024-01-15T06:26:12;1.10;99.90
24384;DHT22;12504;52.870;8.798;2024-01-15T06:28:37;1.10;99.90
24384;DHT22;12504;52.870;8.798;2024-01-15T06:31:03;1.20;99.90
24384;DHT22;12504;52.870;8.798;2024-01-15T06:33:29;1.20;99.90
24384;DHT22;12504;52.870;8.798;2024-01-15T06:35:55;1.20;99.90
24384;DHT22;12504;52.870;8.798;2024-01-15T06:38:25;1.20;99.90
24384;DHT22;12504;52.870;8.798;2024-01-15T06:40:51;1.20;99.90
24384;DHT22;12504;52.870;8.798;2024-01-15T06:43:17;1.10;99.90
24384;DHT22;12504;52.870;8.798;2024-01-15T07:27:19;1.20;99.90
24384;DHT22;12504;52.870;8.798;2024-01-15T07:29:45;1.50;99.90
24384;DHT22;12504;52.870;8.798;2024-01-15T07:32:11;1.20;99.90
24384;DHT22;12504;52.870;8.798;2024-01-15T07:34:37;1.20;99.90
24384;DHT22;12504;52.870;8.798;2024-01-15T08:04:15;1.30;99.90
24384;DHT22;12504;52.870;8.798;2024-01-15T08:06:41;1.40;99.90
24384;DHT22;12504;52.870;8.798;2024-01-15T08:09:07;1.30;99.90
24384;DHT22;12504;52.870;8.798;2024-01-15T08:11:34;1.10;99.90
24384;DHT22;12504;52.870;8.798;2024-01-15T08:14:00;1.20;99.90
24384;DHT22;12504;52.870;8.798;2024-01-15T08:16:25;1.30;99.90
24384;DHT22;12504;52.870;8.798;2024-01-15T08:18:53;1.10;99.90
24384;DHT22;12504;52.870;8.798;2024-01-15T08:21:19;1.10;99.90
24384;DHT22;12504;52.870;8.798;2024-01-15T08:23:44;1.30;99.90
24384;DHT22;12504;52.870;8.798;2024-01-15T08:26:10;1.40;99.90
24384;DHT22;12504;52.870;8.798;2024-01-15T08:28:36;1.40;99.90
24384;DHT22;12504;52.870;8.798;2024-01-15T08:31:02;1.40;99.90
24384;DHT22;12504;52.870;8.798;2024-01-15T08:33:28;1.30;99.90
24384;DHT22;12504;52.870;8.798;2024-01-15T08:35:54;1.40;99.90
24384;DHT22;12504;52.870;8.798;2024-01-15T08:38:20;1.10;99.90
24384;DHT22;12504;52.870;8.798;2024-01-15T08:40:46;1.10;99.90
24384;DHT22;12504;52.870;8.798;2024-01-15T08:43:11;1.30;99.90
24384;DHT22;12504;52.870;8.798;2024-01-15T08:45:37;1.30;99.90
24384;DHT22;12504;52.870;8.798;2024-01-15T08:48:03;1.40;99.90
24384;DHT22;12504;52.870;8.798;2024-01-15T08:50:29;1.20;99.90
24384;DHT22;12504;52.870;8.798;2024-01-15T08:52:55;1.50;99.90
24384;DHT22;12504;52.870;8.798;2024-01-15T08:55:21;1.20;99.90
24384;DHT22;12504;52.870;8.798;2024-01-15T08:57:48;1.20;99.90
24384;DHT22;12504;52.870;8.798;2024-01-15T09:00:14;1.20;99.90
24384;DHT22;12504;52.870;8.798;2024-01-15T09:02:40;1.30;99.90
24384;DHT22;12504;52.870;8.798;2024-01-15T09:05:06;1.30;99.90
24384;DHT22;12504;52.870;8.798;2024-01-15T09:07:32;1.30;99.90
24384;DHT22;12504;52.870;8.798;2024-01-15T09:09:58;1.30;99.90
24384;DHT22;12504;52.870;8.798;2024-01-15T09:12:25;1.30;99.90
24384;DHT22;12504;52.870;8.798;2024-01-15T09:14:51;1.30;99.90
24384;DHT22;12504;52.870;8.798;2024-01-15T09:17:17;1.40;99.90
24384;DHT22;12504;52.870;8.798;2024-01-15T09:19:43;1.30;99.90
24384;DHT22;12504;52.870;8.798;2024-01-15T09:22:09;1.30;99.90
24384;DHT22;12504;52.870;8.798;2024-01-15T09:24:37;1.40;99.90
24384;DHT22;12504;52.870;8.798;2024-01-15T09:27:03;1.30;99.90
24384;DHT22;12504;52.870;8.798;2024-01-15T09:29:28;1.30;99.90
24384;DHT22;12504;52.870;8.798;2024-01-15T09:31:55;1.30;99.90
24384;DHT22;12504;52.870;8.798;2024-01-15T09:34:21;1.30;99.90
24384;DHT22;12504;52.870;8.798;2024-01-15T09:36:48;1.30;99.90
24384;DHT22;12504;52.870;8.798;2024-01-15T09:39:14;1.40;99.90
24384;DHT22;12504;52.870;8.798;2024-01-15T09:41:41;1.40;99.90
24384;DHT22;12504;52.870;8.798;2024-01-15T09:44:07;1.30;99.90
24384;DHT22;12504;52.870;8.798;2024-01-15T09:46:36;1.40;99.90
24384;DHT22;12504;52.870;8.798;2024-01-15T09:49:02;1.40;99.90
24384;DHT22;12504;52.870;8.798;2024-01-15T09:51:31;1.40;99.90
24384;DHT22;12504;52.870;8.798;2024-01-15T09:53:57;1.30;99.90
24384;DHT22;12504;52.870;8.798;2024-01-15T09:56:26;1.30;99.90
24384;DHT22;12504;52.870;8.798;2024-01-15T09:58:52;1.30;99.90
24384;DHT22;12504;52.870;8.798;2024-01-15T10:01:20;1.30;99.90
24384;DHT22;12504;52.870;8.798;2024-01-15T10:03:46;1.30;99.90
24384;DHT22;12504;52.870;8.798;2024-01-15T10:06:16;1.40;99.90
24384;DHT22;12504;52.870;8.798;2024-01-15T10:08:50;1.40;99.90
24384;DHT22;12504;52.870;8.798;2024-01-15T10:11:16;1.50;99.90
24384;DHT22;12504;52.870;8.798;2024-01-15T10:13:54;1.50;99.90
24384;DHT22;12504;52.870;8.798;2024-01-15T10:16:24;1.50;99.90
24384;DHT22;12504;52.870;8.798;2024-01-15T10:18:49;1.50;99.90
24384;DHT22;12504;52.870;8.798;2024-01-15T10:21:15;1.50;99.90
24384;DHT22;12504;52.870;8.798;2024-01-15T10:23:41;1.50;99.90
24384;DHT22;12504;52.870;8.798;2024-01-15T10:26:07;1.60;99.90
24384;DHT22;12504;52.870;8.798;2024-01-15T10:28:33;1.50;99.90
24384;DHT22;12504;52.870;8.798;2024-01-15T10:31:00;1.50;99.90
24384;DHT22;12504;52.870;8.798;2024-01-15T10:33:27;1.60;99.90
24384;DHT22;12504;52.870;8.798;2024-01-15T10:36:01;1.60;99.90
24384;DHT22;12504;52.870;8.798;2024-01-15T10:38:27;1.70;99.90
24384;DHT22;12504;52.870;8.798;2024-01-15T10:40:56;1.70;99.90
24384;DHT22;12504;52.870;8.798;2024-01-15T10:43:22;1.70;99.90
24384;DHT22;12504;52.870;8.798;2024-01-15T10:45:49;1.70;99.90
24384;DHT22;12504;52.870;8.798;2024-01-15T10:48:17;1.80;99.90
24384;DHT22;12504;52.870;8.798;2024-01-15T10:53:39;1.80;99.90
24384;DHT22;12504;52.870;8.798;2024-01-15T10:56:15;1.80;99.90
24384;DHT22;12504;52.870;8.798;2024-01-15T10:58:43;1.80;99.90
24384;DHT22;12504;52.870;8.798;2024-01-15T11:01:09;1.90;99.90
24384;DHT22;12504;52.870;8.798;2024-01-15T11:03:35;1.80;99.90
24384;DHT22;12504;52.870;8.798;2024-01-15T11:06:02;1.80;99.90
24384;DHT22;12504;52.870;8.798;2024-01-15T11:08:29;1.90;99.90
24384;DHT22;12504;52.870;8.798;2024-01-15T11:10:55;1.80;99.90
24384;DHT22;12504;52.870;8.798;2024-01-15T11:13:22;1.60;99.90
24384;DHT22;12504;52.870;8.798;2024-01-15T11:16:05;1.50;99.90
24384;DHT22;12504;52.870;8.798;2024-01-15T11:18:36;1.40;99.90
24384;DHT22;12504;52.870;8.798;2024-01-15T11:21:22;1.40;99.90
24384;DHT22;12504;52.870;8.798;2024-01-15T11:23:59;1.40;99.90
24384;DHT22;12504;52.870;8.798;2024-01-15T11:28:59;1.40;99.90
24384;DHT22;12504;52.870;8.798;2024-01-15T11:33:54;1.50;99.90
24384;DHT22;12504;52.870;8.798;2024-01-15T11:42:03;1.60;99.90
24384;DHT22;12504;52.870;8.798;2024-01-15T11:44:29;1.60;99.90
24384;DHT22;12504;52.870;8.798;2024-01-15T11:50:08;1.60;99.90
24384;DHT22;12504;52.870;8.798;2024-01-15T11:52:18;1.60;99.90
24384;DHT22;12504;52.870;8.798;2024-01-15T11:59:59;1.70;99.90
24384;DHT22;12504;52.870;8.798;2024-01-15T12:02:25;1.70;99.90
24384;DHT22;12504;52.870;8.798;2024-01-15T12:04:51;1.70;99.90
24384;DHT22;12504;52.870;8.798;2024-01-15T12:07:17;1.80;99.90
24384;DHT22;12504;52.870;8.798;2024-01-15T12:09:43;1.80;99.90
24384;DHT22;12504;52.870;8.798;2024-01-15T12:12:20;1.90;99.90
24384;DHT22;12504;52.870;8.798;2024-01-15T12:14:50;1.90;99.90
24384;DHT22;12504;52.870;8.798;2024-01-15T12:17:16;1.90;99.90
24384;DHT22;12504;52.870;8.798;2024-01-15T12:19:43;1.90;99.90
24384;DHT22;12504;52.870;8.798;2024-01-15T12:22:09;1.90;99.90
24384;DHT22;12504;52.870;8.798;2024-01-15T12:24:35;1.90;99.90
24384;DHT22;12504;52.870;8.798;2024-01-15T12:27:02;2.00;99.90
24384;DHT22;12504;52.870;8.798;2024-01-15T12:29:28;2.00;99.90
24384;DHT22;12504;52.870;8.798;2024-01-15T12:31:55;2.00;99.90
24384;DHT22;12504;52.870;8.798;2024-01-15T12:34:21;2.10;99.90
24384;DHT22;12504;52.870;8.798;2024-01-15T12:36:47;2.10;99.90
24384;DHT22;12504;52.870;8.798;2024-01-15T12:39:13;2.00;99.90
24384;DHT22;12504;52.870;8.798;2024-01-15T12:41:39;1.90;99.90
24384;DHT22;12504;52.870;8.798;2024-01-15T12:44:06;1.90;99.90
24384;DHT22;12504;52.870;8.798;2024-01-15T12:46:32;1.90;99.90
24384;DHT22;12504;52.870;8.798;2024-01-15T12:48:58;1.90;99.90
24384;DHT22;12504;52.870;8.798;2024-01-15T12:51:27;1.90;99.90
24384;DHT22;12504;52.870;8.798;2024-01-15T12:53:54;1.90;99.90
24384;DHT22;12504;52.870;8.798;2024-01-15T12:56:21;1.90;99.90
24384;DHT22;12504;52.870;8.798;2024-01-15T12:58:47;1.90;99.90
24384;DHT22;12504;52.870;8.798;2024-01-15T13:01:12;2.10;99.90
24384;DHT22;12504;52.870;8.798;2024-01-15T13:03:38;2.10;99.90
24384;DHT22;12504;52.870;8.798;2024-01-15T13:06:05;2.30;99.90
24384;DHT22;12504;52.870;8.798;2024-01-15T13:08:31;2.50;99.90
24384;DHT22;12504;52.870;8.798;2024-01-15T13:10:56;2.50;99.90
24384;DHT22;12504;52.870;8.798;2024-01-15T13:13:23;2.50;99.90
24384;DHT22;12504;52.870;8.798;2024-01-15T13:15:49;2.40;99.90
24384;DHT22;12504;52.870;8.798;2024-01-15T13:18:15;2.40;99.90
24384;DHT22;12504;52.870;8.798;2024-01-15T13:20:41;2.40;99.90
24384;DHT22;12504;52.870;8.798;2024-01-15T13:23:07;2.30;99.90
24384;DHT22;12504;52.870;8.798;2024-01-15T13:25:32;2.40;99.90
24384;DHT22;12504;52.870;8.798;2024-01-15T13:28:01;2.30;99.90
24384;DHT22;12504;52.870;8.798;2024-01-15T13:30:27;2.40;99.90
24384;DHT22;12504;52.870;8.798;2024-01-15T13:32:53;2.30;99.90
24384;DHT22;12504;52.870;8.798;2024-01-15T13:35:21;2.30;99.90
24384;DHT22;12504;52.870;8.798;2024-01-15T13:37:47;2.20;99.90
24384;DHT22;12504;52.870;8.798;2024-01-15T13:40:13;2.10;99.90
24384;DHT22;12504;52.870;8.798;2024-01-15T13:42:42;2.10;99.90
24384;DHT22;12504;52.870;8.798;2024-01-15T13:45:08;2.10;99.90
24384;DHT22;12504;52.870;8.798;2024-01-15T13:47:34;2.10;99.90
24384;DHT22;12504;52.870;8.798;2024-01-15T13:49:59;2.20;99.90
24384;DHT22;12504;52.870;8.798;2024-01-15T13:52:25;2.20;99.90
24384;DHT22;12504;52.870;8.798;2024-01-15T13:54:52;2.30;99.90
24384;DHT22;12504;52.870;8.798;2024-01-15T13:57:18;2.30;99.90
24384;DHT22;12504;52.870;8.798;2024-01-15T13:59:44;2.30;99.90
24384;DHT22;12504;52.870;8.798;2024-01-15T14:02:10;2.20;99.90
24384;DHT22;12504;52.870;8.798;2024-01-15T14:04:38;2.00;99.90
24384;DHT22;12504;52.870;8.798;2024-01-15T14:07:04;1.80;99.90
24384;DHT22;12504;52.870;8.798;2024-01-15T14:09:31;1.70;99.90
24384;DHT22;12504;52.870;8.798;2024-01-15T14:11:58;1.60;99.90
24384;DHT22;12504;52.870;8.798;2024-01-15T14:14:24;1.60;99.90
24384;DHT22;12504;52.870;8.798;2024-01-15T14:16:51;1.60;99.90
24384;DHT22;12504;52.870;8.798;2024-01-15T14:19:18;1.60;99.90
24384;DHT22;12504;52.870;8.798;2024-01-15T14:21:44;1.50;99.90
24384;DHT22;12504;52.870;8.798;2024-01-15T14:24:09;1.50;99.90
24384;DHT22;12504;52.870;8.798;2024-01-15T14:26:36;1.40;99.90
24384;DHT22;12504;52.870;8.798;2024-01-15T14:29:02;1.30;99.90
24384;DHT22;12504;52.870;8.798;2024-01-15T14:31:28;1.30;99.90
24384;DHT22;12504;52.870;8.798;2024-01-15T14:33:57;1.20;99.90
24384;DHT22;12504;52.870;8.798;2024-01-15T14:36:25;1.20;99.90
24384;DHT22;12504;52.870;8.798;2024-01-15T14:38:54;1.20;99.90
24384;DHT22;12504;52.870;8.798;2024-01-15T14:41:21;1.30;99.90
24384;DHT22;12504;52.870;8.798;2024-01-15T14:43:46;1.40;99.90
24384;DHT22;12504;52.870;8.798;2024-01-15T14:46:12;1.40;99.90
24384;DHT22;12504;52.870;8.798;2024-01-15T14:48:38;1.40;99.90
24384;DHT22;12504;52.870;8.798;2024-01-15T14:51:03;1.40;99.90
24384;DHT22;12504;52.870;8.798;2024-01-15T14:53:29;1.40;99.90
24384;DHT22;12504;52.870;8.798;2024-01-15T14:55:56;1.50;99.90
24384;DHT22;12504;52.870;8.798;2024-01-15T14:58:22;1.50;99.90
24384;DHT22;12504;52.870;8.798;2024-01-15T15:00:47;1.50;99.90
24384;DHT22;12504;52.870;8.798;2024-01-15T15:03:14;1.50;99.90
24384;DHT22;12504;52.870;8.798;2024-01-15T15:05:42;1.50;99.90
24384;DHT22;12504;52.870;8.798;2024-01-15T15:08:08;1.50;99.90
24384;DHT22;12504;52.870;8.798;2024-01-15T15:10:35;1.50;99.90
24384;DHT22;12504;52.870;8.798;2024-01-15T15:13:01;1.40;99.90
24384;DHT22;12504;52.870;8.798;2024-01-15T15:15:27;1.50;99.90
24384;DHT22;12504;52.870;8.798;2024-01-15T15:17:53;1.40;99.90
24384;DHT22;12504;52.870;8.798;2024-01-15T15:20:18;1.40;99.90
24384;DHT22;12504;52.870;8.798;2024-01-15T15:22:44;1.40;99.90
24384;DHT22;12504;52.870;8.798;2024-01-15T15:25:10;1.40;99.90
24384;DHT22;12504;52.870;8.798;2024-01-15T15:27:37;1.40;99.90
24384;DHT22;12504;52.870;8.798;2024-01-15T15:30:06;1.40;99.90
24384;DHT22;12504;52.870;8.798;2024-01-15T15:32:33;1.30;99.90
24384;DHT22;12504;52.870;8.798;2024-01-15T15:34:58;1.30;99.90
24384;DHT22;12504;52.870;8.798;2024-01-15T15:37:24;1.30;99.90
24384;DHT22;12504;52.870;8.798;2024-01-15T15:39:50;1.30;99.90
24384;DHT22;12504;52.870;8.798;2024-01-15T15:42:16;1.30;99.90
24384;DHT22;12504;52.870;8.798;2024-01-15T15:44:42;1.30;99.90
24384;DHT22;12504;52.870;8.798;2024-01-15T15:47:14;1.30;99.90
24384;DHT22;12504;52.870;8.798;2024-01-15T15:49:41;1.30;99.90
24384;DHT22;12504;52.870;8.798;2024-01-15T15:52:07;1.30;99.90
24384;DHT22;12504;52.870;8.798;2024-01-15T15:54:33;1.30;99.90
24384;DHT22;12504;52.870;8.798;2024-01-15T15:56:58;1.30;99.90
24384;DHT22;12504;52.870;8.798;2024-01-15T15:59:24;1.30;99.90
24384;DHT22;12504;52.870;8.798;2024-01-15T16:01:50;1.30;99.90
24384;DHT22;12504;52.870;8.798;2024-01-15T16:04:16;1.30;99.90
24384;DHT22;12504;52.870;8.798;2024-01-15T16:06:43;1.40;99.90
24384;DHT22;12504;52.870;8.798;2024-01-15T16:09:12;1.40;99.90
24384;DHT22;12504;52.870;8.798;2024-01-15T16:11:38;1.30;99.90
24384;DHT22;12504;52.870;8.798;2024-01-15T16:14:04;1.40;99.90
24384;DHT22;12504;52.870;8.798;2024-01-15T16:16:33;1.30;99.90
24384;DHT22;12504;52.870;8.798;2024-01-15T16:18:59;1.30;99.90
24384;DHT22;12504;52.870;8.798;2024-01-15T16:21:25;1.20;99.90
24384;DHT22;12504;52.870;8.798;2024-01-15T16:23:52;1.20;99.90
24384;DHT22;12504;52.870;8.798;2024-01-15T16:26:18;1.20;99.90
24384;DHT22;12504;52.870;8.798;2024-01-15T16:28:45;1.20;99.90
24384;DHT22;12504;52.870;8.798;2024-01-15T16:31:10;1.30;99.90
24384;DHT22;12504;52.870;8.798;2024-01-15T16:33:36;1.30;99.90
24384;DHT22;12504;52.870;8.798;2024-01-15T16:36:02;1.30;99.90
24384;DHT22;12504;52.870;8.798;2024-01-15T16:38:28;1.30;99.90
24384;DHT22;12504;52.870;8.798;2024-01-15T16:40:54;1.30;99.90
24384;DHT22;12504;52.870;8.798;2024-01-15T16:43:22;1.30;99.90
24384;DHT22;12504;52.870;8.798;2024-01-15T16:45:47;1.30;99.90
24384;DHT22;12504;52.870;8.798;2024-01-15T16:48:14;1.30;99.90
24384;DHT22;12504;52.870;8.798;2024-01-15T16:50:40;1.30;99.90
24384;DHT22;12504;52.870;8.798;2024-01-15T16:53:05;1.40;99.90
24384;DHT22;12504;52.870;8.798;2024-01-15T16:55:32;1.30;99.90
24384;DHT22;12504;52.870;8.798;2024-01-15T16:57:59;1.30;99.90
24384;DHT22;12504;52.870;8.798;2024-01-15T17:00:26;1.20;99.90
24384;DHT22;12504;52.870;8.798;2024-01-15T17:29:44;1.00;99.90
24384;DHT22;12504;52.870;8.798;2024-01-15T17:32:13;1.00;99.90
24384;DHT22;12504;52.870;8.798;2024-01-15T17:34:39;1.00;99.90
24384;DHT22;12504;52.870;8.798;2024-01-15T17:37:05;1.00;99.90
24384;DHT22;12504;52.870;8.798;2024-01-15T18:06:29;1.10;99.90
24384;DHT22;12504;52.870;8.798;2024-01-15T18:08:57;1.20;99.90
24384;DHT22;12504;52.870;8.798;2024-01-15T18:11:23;1.20;99.90
24384;DHT22;12504;52.870;8.798;2024-01-15T18:13:50;1.10;99.90
24384;DHT22;12504;52.870;8.798;2024-01-15T18:16:17;1.20;99.90
24384;DHT22;12504;52.870;8.798;2024-01-15T18:18:51;1.20;99.90
24384;DHT22;12504;52.870;8.798;2024-01-15T18:21:21;1.10;99.90
24384;DHT22;12504;52.870;8.798;2024-01-15T18:23:47;1.20;99.90
24384;DHT22;12504;52.870;8.798;2024-01-15T18:26:14;1.00;99.90
24384;DHT22;12504;52.870;8.798;2024-01-15T18:28:40;1.00;99.90
24384;DHT22;12504;52.870;8.798;2024-01-15T18:31:06;1.20;99.90
24384;DHT22;12504;52.870;8.798;2024-01-15T18:33:36;1.20;99.90
24384;DHT22;12504;52.870;8.798;2024-01-15T18:36:05;1.10;99.90
24384;DHT22;12504;52.870;8.798;2024-01-15T18:38:33;1.10;99.90
24384;DHT22;12504;52.870;8.798;2024-01-15T18:41:02;1.20;99.90
24384;DHT22;12504;52.870;8.798;2024-01-15T18:43:32;1.20;99.90
24384;DHT22;12504;52.870;8.798;2024-01-15T18:46:05;1.10;99.90
24384;DHT22;12504;52.870;8.798;2024-01-15T18:48:32;1.00;99.90
24384;DHT22;12504;52.870;8.798;2024-01-15T18:50:58;1.20;99.90
24384;DHT22;12504;52.870;8.798;2024-01-15T18:53:26;1.20;99.90
24384;DHT22;12504;52.870;8.798;2024-01-15T18:55:52;1.20;99.90
24384;DHT22;12504;52.870;8.798;2024-01-15T18:58:19;1.20;99.90
24384;DHT22;12504;52.870;8.798;2024-01-15T19:00:44;1.20;99.90
24384;DHT22;12504;52.870;8.798;2024-01-15T19:03:10;1.20;99.90